Time;durP1;ratioP1;P1;durP2;ratioP2;P2;SDS_P1;SDS_P2;PMS_P1;PMS_P2;Temp;Humidity;BMP_temperature;BMP_pressure;BME280_temperature;BME280_humidity;BME280_pressure;Samples;Min_cycle;Max_cycle;Signal;HPM_P1;HPM_P2
2022/01/24 00:00:23;;;;;;;24.60;12.43;;;64.50;2201.60;;;;;;5074290;28;20021;-74
2022/01/24 00:02:49;;;;;;;24.63;12.83;;;64.60;2201.60;;;;;;5074293;28;20395;-75
2022/01/24 00:05:17;;;;;;;25.83;12.70;;;64.60;2201.60;;;;;;5074331;28;20028;-74
2022/01/24 00:07:43;;;;;;;27.13;12.80;;;64.60;2201.60;;;;;;5074435;28;20025;-74
2022/01/24 00:10:14;;;;;;;33.50;14.97;;;64.60;2201.60;;;;;;5073962;28;20477;-74
2022/01/24 00:15:51;;;;;;;33.27;16.17;;;64.70;2201.60;;;;;;5073933;28;20052;-70
2022/01/24 00:18:24;;;;;;;29.67;13.73;;;64.70;2201.60;;;;;;5073793;28;20079;-73
2022/01/24 00:29:03;;;;;;;25.33;11.00;;;64.70;2201.60;;;;;;5073778;28;20031;-76
2022/01/24 00:31:29;;;;;;;26.17;11.93;;;64.70;2201.60;;;;;;5073672;28;20023;-69
2022/01/24 00:33:54;;;;;;;21.97;10.83;;;64.70;2201.60;;;;;;5073469;28;20020;-69
2022/01/24 00:36:20;;;;;;;23.10;11.03;;;64.80;2201.60;;;;;;5073611;28;20104;-76
2022/01/24 00:38:46;;;;;;;21.83;11.30;;;64.80;2201.60;;;;;;5073343;28;20126;-76
2022/01/24 00:41:15;;;;;;;20.80;11.30;;;64.80;2201.60;;;;;;5073756;28;20341;-74
2022/01/24 00:44:02;;;;;;;19.77;11.17;;;64.80;2201.60;;;;;;5073303;28;20111;-68
2022/01/24 00:46:35;;;;;;;22.07;11.13;;;64.80;2201.60;;;;;;5073432;28;20031;-69
2022/01/24 00:57:04;;;;;;;20.65;11.05;;;89.60;2201.60;;;;;;5073119;28;20392;-77
2022/01/24 00:59:30;;;;;;;16.87;9.87;;;89.60;2201.60;;;;;;5073102;28;20030;-76
2022/01/24 01:01:56;;;;;;;16.63;9.97;;;89.60;2201.60;;;;;;5073125;28;20024;-68
2022/01/24 01:04:28;;;;;;;20.03;10.50;;;89.70;2176.00;;;;;;5071527;28;20028;-67
2022/01/24 01:06:55;;;;;;;23.03;11.53;;;89.70;2176.00;;;;;;5073858;28;20469;-68
2022/01/24 01:20:26;;;;;;;22.73;10.83;;;90.00;2176.00;;;;;;5073922;28;20546;-74
2022/01/24 01:22:52;;;;;;;20.83;10.87;;;89.90;2176.00;;;;;;5073871;28;20034;-68
2022/01/24 01:25:18;;;;;;;18.63;10.03;;;89.90;2176.00;;;;;;5073592;28;20029;-68
2022/01/24 01:27:49;;;;;;;19.03;9.67;;;89.90;2176.00;;;;;;5073668;28;20024;-69
2022/01/24 01:30:22;;;;;;;16.63;8.73;;;89.90;2176.00;;;;;;5072762;28;20039;-73
2022/01/24 01:33:10;;;;;;;17.98;10.10;;;89.90;2176.00;;;;;;5073540;28;20078;-68
2022/01/24 01:52:28;;;;;;;18.20;9.23;;;90.00;2176.00;;;;;;5071905;28;20043;-73
2022/01/24 01:55:10;;;;;;;15.83;8.77;;;90.10;2176.00;;;;;;5073273;28;20032;-70
2022/01/24 01:57:37;;;;;;;23.00;10.50;;;90.10;2176.00;;;;;;5076084;28;20492;-69
2022/01/24 02:00:06;;;;;;;20.00;9.83;;;90.10;2176.00;;;;;;5076115;28;20396;-73
2022/01/24 02:02:31;;;;;;;17.17;9.57;;;90.20;2176.00;;;;;;5077704;28;20027;-69
2022/01/24 02:04:57;;;;;;;17.40;9.63;;;90.20;2176.00;;;;;;5077230;28;20033;-69
2022/01/24 02:07:23;;;;;;;17.70;9.30;;;90.20;2176.00;;;;;;5077310;28;20032;-68
2022/01/24 02:09:49;;;;;;;17.83;9.20;;;90.30;2176.00;;;;;;5077147;28;20035;-68
2022/01/24 02:12:18;;;;;;;17.40;9.60;;;90.30;2176.00;;;;;;5077194;28;20107;-69
2022/01/24 02:14:51;;;;;;;15.77;8.97;;;90.20;2176.00;;;;;;5076847;28;20048;-69
2022/01/24 02:17:25;;;;;;;16.03;8.50;;;90.20;2176.00;;;;;;5077015;28;20544;-69
2022/01/24 02:24:56;;;;;;;14.27;8.50;;;90.30;2176.00;;;;;;5077548;28;20028;-68
2022/01/24 02:27:24;;;;;;;;;;;90.30;2176.00;;;;;;5077646;28;20086;-67
2022/01/24 02:30:14;;;;;;;17.73;7.83;;;90.40;2176.00;;;;;;5076852;28;19908;-68
2022/01/24 02:32:40;;;;;;;15.67;7.67;;;90.40;2176.00;;;;;;5077138;28;20380;-67
2022/01/24 02:35:08;;;;;;;16.53;8.53;;;90.40;2176.00;;;;;;5076697;28;20025;-68
2022/01/24 02:37:35;;;;;;;18.47;8.77;;;90.50;2176.00;;;;;;5076587;28;20115;-71
2022/01/24 02:40:15;;;;;;;14.23;7.83;;;90.50;2176.00;;;;;;5076655;28;20013;-67
2022/01/24 02:48:30;;;;;;;17.50;8.60;;;115.40;2176.00;;;;;;5077094;28;20047;-67
2022/01/24 02:53:42;;;;;;;15.57;8.10;;;115.50;2176.00;;;;;;5076956;28;20446;-67
2022/01/24 02:56:08;;;;;;;18.53;9.17;;;115.50;2176.00;;;;;;5076647;28;20016;-68
2022/01/24 02:58:35;;;;;;;24.50;11.37;;;115.50;2176.00;;;;;;5074948;28;20040;-68
2022/01/24 03:01:06;;;;;;;32.83;14.13;;;115.40;2176.00;;;;;;5076315;28;20023;-72
2022/01/24 03:03:36;;;;;;;25.80;12.87;;;115.40;2176.00;;;;;;5076585;28;20033;-69
2022/01/24 03:06:05;;;;;;;31.23;14.03;;;115.40;2176.00;;;;;;5076210;28;20052;-72
2022/01/24 03:08:31;;;;;;;27.33;13.10;;;115.40;2176.00;;;;;;5076119;28;20032;-67
2022/01/24 03:10:59;;;;;;;27.17;13.23;;;115.40;2176.00;;;;;;5076099;28;20021;-70
2022/01/24 03:15:53;;;;;;;36.93;15.13;;;115.50;2176.00;;;;;;5076331;28;20064;-68
2022/01/24 03:18:19;;;;;;;25.67;12.53;;;115.50;2176.00;;;;;;5075868;28;20036;-67
2022/01/24 03:20:46;;;;;;;21.13;10.73;;;115.50;2176.00;;;;;;5075945;28;20052;-67
2022/01/24 03:23:16;;;;;;;14.57;7.70;;;115.50;2176.00;;;;;;5075905;28;20017;-73
2022/01/24 03:25:43;;;;;;;14.80;8.43;;;115.40;2176.00;;;;;;5075826;28;20147;-71
2022/01/24 03:28:09;;;;;;;18.67;9.47;;;115.40;2176.00;;;;;;5075818;28;20029;-67
2022/01/24 03:30:37;;;;;;;17.97;8.63;;;115.40;2176.00;;;;;;5075937;28;20064;-71
2022/01/24 03:33:04;;;;;;;16.97;7.73;;;115.50;2176.00;;;;;;5075703;28;20077;-68
2022/01/24 03:35:30;;;;;;;17.97;7.20;;;115.60;2176.00;;;;;;5075680;28;20020;-68
2022/01/24 03:37:56;;;;;;;13.83;7.87;;;115.70;2176.00;;;;;;5075496;28;20102;-72
2022/01/24 03:40:22;;;;;;;16.20;8.27;;;115.70;2176.00;;;;;;5075560;28;20024;-73
2022/01/24 03:42:48;;;;;;;17.30;8.10;;;115.70;2176.00;;;;;;5075791;28;20027;-71
2022/01/24 03:45:16;;;;;;;16.57;8.60;;;115.80;2176.00;;;;;;5075772;28;20100;-73
2022/01/24 03:47:55;;;;;;;12.80;7.13;;;115.80;2176.00;;;;;;5075698;28;20405;-68
2022/01/24 03:50:22;;;;;;;16.40;7.10;;;115.80;2176.00;;;;;;5075404;28;20023;-67
2022/01/24 03:52:49;;;;;;;14.07;6.97;;;115.80;2176.00;;;;;;5075325;28;20070;-68
2022/01/24 03:55:15;;;;;;;13.53;7.23;;;115.90;2176.00;;;;;;5076100;28;20373;-68
2022/01/24 03:57:41;;;;;;;15.80;7.60;;;115.90;2176.00;;;;;;5075411;28;20101;-68
2022/01/24 04:00:09;;;;;;;13.13;7.33;;;115.90;2176.00;;;;;;5075121;28;20532;-68
2022/01/24 04:02:35;;;;;;;14.70;7.30;;;115.90;2176.00;;;;;;5075119;28;20031;-68
2022/01/24 04:05:01;;;;;;;14.00;7.07;;;115.80;2176.00;;;;;;5075180;28;20446;-67
2022/01/24 04:07:27;;;;;;;12.27;7.20;;;115.80;2176.00;;;;;;5075034;28;20024;-67
2022/01/24 04:09:53;;;;;;;12.83;6.90;;;115.80;2176.00;;;;;;5074935;28;20358;-68
2022/01/24 04:12:24;;;;;;;15.20;7.70;;;115.80;2176.00;;;;;;5073629;28;20465;-68
2022/01/24 04:22:34;;;;;;;14.43;7.13;;;115.70;2176.00;;;;;;5075034;28;20032;-67
2022/01/24 04:25:03;;;;;;;21.20;9.47;;;115.80;2176.00;;;;;;5074738;28;20021;-67
2022/01/24 04:27:29;;;;;;;33.13;13.10;;;115.70;2176.00;;;;;;5074659;28;20033;-70
2022/01/24 04:29:56;;;;;;;31.33;13.53;;;115.80;2176.00;;;;;;5074596;28;20469;-67
2022/01/24 04:32:22;;;;;;;20.73;9.57;;;115.80;2176.00;;;;;;5074753;28;20028;-72
2022/01/24 04:34:48;;;;;;;17.83;9.00;;;115.80;2176.00;;;;;;5074445;28;20503;-67
2022/01/24 04:37:15;;;;;;;19.97;9.17;;;115.80;2176.00;;;;;;5074599;28;20025;-68
2022/01/24 04:39:42;;;;;;;15.73;8.33;;;115.80;2176.00;;;;;;5074637;28;20025;-70
2022/01/24 04:42:13;;;;;;;17.23;7.80;;;115.90;2176.00;;;;;;5074274;28;20031;-67
2022/01/24 04:50:19;;;;;;;13.83;8.27;;;115.90;2176.00;;;;;;5063741;28;20173;-71
2022/01/24 04:53:03;;;;;;;23.37;10.93;;;116.00;2176.00;;;;;;5074154;28;20069;-73
2022/01/24 04:55:29;;;;;;;25.25;10.45;;;116.10;2176.00;;;;;;5074239;28;20020;-67
2022/01/24 04:57:55;;;;;;;19.43;9.27;;;116.10;2176.00;;;;;;5074219;28;20081;-70
2022/01/24 05:00:21;;;;;;;16.13;8.80;;;116.10;2176.00;;;;;;5073997;28;20056;-67
2022/01/24 05:02:47;;;;;;;15.77;8.53;;;116.10;2176.00;;;;;;5074212;28;20021;-68
2022/01/24 05:05:18;;;;;;;19.70;10.27;;;140.80;2176.00;;;;;;5073958;28;20027;-69
2022/01/24 05:07:43;;;;;;;17.63;9.80;;;140.80;2176.00;;;;;;5074465;28;20116;-68
2022/01/24 05:23:32;;;;;;;17.20;8.53;;;140.90;2176.00;;;;;;5074001;28;20063;-67
2022/01/24 05:25:59;;;;;;;;;;;140.90;2176.00;;;;;;5074145;28;20017;-67
2022/01/24 05:28:26;;;;;;;21.87;10.37;;;140.90;2176.00;;;;;;5073598;28;20353;-68
2022/01/24 05:30:52;;;;;;;22.33;9.50;;;140.90;2176.00;;;;;;5071580;28;20112;-68
2022/01/24 05:33:18;;;;;;;31.20;13.40;;;140.90;2176.00;;;;;;5073540;28;20028;-69
2022/01/24 05:35:45;;;;;;;30.17;11.73;;;140.90;2176.00;;;;;;5073606;28;20021;-69
2022/01/24 05:38:11;;;;;;;22.67;11.40;;;141.00;2176.00;;;;;;5073466;28;20473;-68
2022/01/24 05:40:38;;;;;;;33.03;14.17;;;141.00;2176.00;;;;;;5073722;28;20161;-68
2022/01/24 05:43:06;;;;;;;26.33;11.47;;;141.00;2176.00;;;;;;5073499;28;20078;-68
2022/01/24 05:45:33;;;;;;;19.60;8.67;;;141.00;2176.00;;;;;;5073473;28;20025;-68
2022/01/24 05:47:59;;;;;;;16.87;7.97;;;141.00;2176.00;;;;;;5073457;28;20422;-69
2022/01/24 05:50:25;;;;;;;16.40;8.50;;;141.10;2176.00;;;;;;5073447;28;20017;-68
2022/01/24 05:52:51;;;;;;;19.43;8.10;;;141.10;2176.00;;;;;;5073318;28;20036;-68
2022/01/24 05:55:17;;;;;;;28.23;11.73;;;141.10;2176.00;;;;;;5073361;28;20025;-73
2022/01/24 05:57:43;;;;;;;25.13;10.63;;;141.00;2176.00;;;;;;5073189;28;20044;-70
2022/01/24 06:00:11;;;;;;;22.43;9.80;;;141.10;2176.00;;;;;;5074147;28;20095;-68
2022/01/24 06:02:38;;;;;;;18.20;8.10;;;141.10;2176.00;;;;;;5073283;28;20017;-69
2022/01/24 06:05:04;;;;;;;19.10;8.83;;;141.10;2176.00;;;;;;5073197;28;20017;-67
2022/01/24 06:07:30;;;;;;;33.67;11.17;;;141.00;2176.00;;;;;;5073190;28;20123;-69
2022/01/24 06:09:56;;;;;;;36.97;12.43;;;141.00;2176.00;;;;;;5073160;28;20544;-70
2022/01/24 06:12:23;;;;;;;18.07;8.63;;;141.10;2176.00;;;;;;5073410;28;20028;-68
2022/01/24 06:14:49;;;;;;;23.83;10.60;;;141.10;2176.00;;;;;;5072942;28;20135;-68
2022/01/24 06:17:16;;;;;;;108.37;34.97;;;141.10;2176.00;;;;;;5073157;28;20473;-70
2022/01/24 06:19:43;;;;;;;91.60;33.57;;;141.20;2176.00;;;;;;5073169;28;20031;-68
2022/01/24 06:22:08;;;;;;;40.80;16.97;;;141.30;2176.00;;;;;;5073070;28;20533;-69
2022/01/24 06:24:34;;;;;;;24.07;12.57;;;141.30;2176.00;;;;;;5072079;28;20032;-69
2022/01/24 06:27:00;;;;;;;29.07;13.80;;;141.40;2176.00;;;;;;5073020;28;20028;-67
2022/01/24 06:29:26;;;;;;;29.90;13.93;;;141.40;2176.00;;;;;;5073238;28;20012;-68
2022/01/24 06:31:52;;;;;;;102.83;36.00;;;141.40;2176.00;;;;;;5073270;28;20025;-68
2022/01/24 06:34:18;;;;;;;48.20;21.73;;;141.30;2176.00;;;;;;5073265;28;20044;-70
2022/01/24 06:36:44;;;;;;;40.80;17.60;;;141.20;2176.00;;;;;;5072843;28;20031;-67
2022/01/24 06:39:11;;;;;;;31.57;15.53;;;141.20;2176.00;;;;;;5072935;28;20492;-68
2022/01/24 06:41:38;;;;;;;25.67;12.70;;;141.10;2176.00;;;;;;5073456;28;20415;-68
2022/01/24 06:44:04;;;;;;;28.37;13.30;;;141.10;2176.00;;;;;;5076745;28;20020;-67
2022/01/24 06:46:30;;;;;;;54.37;22.93;;;141.10;2176.00;;;;;;5076520;28;20024;-68
2022/01/24 06:48:57;;;;;;;38.30;17.77;;;141.10;2176.00;;;;;;5076520;28;20100;-68
2022/01/24 06:51:23;;;;;;;53.50;22.90;;;141.00;2176.00;;;;;;5076745;28;20028;-68
2022/01/24 06:53:50;;;;;;;73.30;27.63;;;140.90;2176.00;;;;;;5076348;28;20031;-69
2022/01/24 06:56:17;;;;;;;72.70;23.80;;;140.90;2176.00;;;;;;5076476;28;20031;-68
2022/01/24 06:58:43;;;;;;;28.80;12.53;;;140.80;2176.00;;;;;;5076188;28;20089;-68
2022/01/24 07:01:09;;;;;;;26.97;13.07;;;140.80;2176.00;;;;;;5076256;28;20373;-67
2022/01/24 07:03:35;;;;;;;33.97;15.23;;;140.80;2176.00;;;;;;5076738;28;20444;-72
2022/01/24 07:06:01;;;;;;;31.27;14.33;;;140.80;2176.00;;;;;;5076232;28;20103;-71
2022/01/24 07:08:27;;;;;;;23.27;12.10;;;116.10;2176.00;;;;;;5076164;28;20111;-68
2022/01/24 07:10:54;;;;;;;20.43;10.87;;;116.00;2176.00;;;;;;5076130;28;20111;-69
2022/01/24 07:13:21;;;;;;;24.07;12.00;;;115.90;2176.00;;;;;;5075832;28;20027;-68
2022/01/24 07:16:01;;;;;;;36.10;16.37;;;115.80;2176.00;;;;;;5076365;28;20033;-72
2022/01/24 07:20:56;;;;;;;33.73;18.07;;;115.70;2176.00;;;;;;5075929;28;20435;-67
2022/01/24 07:23:23;;;;;;;40.50;17.73;;;115.70;2176.00;;;;;;5074597;28;20396;-69
2022/01/24 07:25:49;;;;;;;32.27;16.27;;;115.60;2176.00;;;;;;5075879;28;20469;-67
2022/01/24 07:28:16;;;;;;;33.43;16.43;;;115.50;2176.00;;;;;;5075784;28;20021;-67
2022/01/24 07:30:43;;;;;;;36.07;17.17;;;115.50;2176.00;;;;;;5075734;28;20469;-67
2022/01/24 07:33:09;;;;;;;34.40;17.07;;;115.40;2176.00;;;;;;5075802;28;20029;-67
2022/01/24 07:35:35;;;;;;;30.97;15.27;;;115.30;2176.00;;;;;;5075692;28;20508;-67
2022/01/24 07:38:01;;;;;;;37.73;17.20;;;115.20;2176.00;;;;;;5075578;28;20033;-67
2022/01/24 07:40:27;;;;;;;36.93;18.33;;;115.20;2176.00;;;;;;5076454;28;20056;-67
2022/01/24 07:43:10;;;;;;;49.17;23.97;;;115.30;2176.00;;;;;;5075614;28;20035;-70
2022/01/24 07:45:37;;;;;;;44.95;20.92;;;90.50;2176.00;;;;;;5075828;28;20024;-68
2022/01/24 07:48:04;;;;;;;46.17;23.27;;;90.40;2176.00;;;;;;5075466;28;20060;-68
2022/01/24 07:50:31;;;;;;;45.17;19.37;;;90.30;2176.00;;;;;;5075401;28;20016;-68
2022/01/24 07:52:59;;;;;;;35.73;18.23;;;90.30;2176.00;;;;;;5074070;28;20020;-73
2022/01/24 07:55:25;;;;;;;32.27;16.63;;;90.20;2176.00;;;;;;5074402;28;20021;-67
2022/01/24 07:57:52;;;;;;;32.03;16.73;;;90.10;2176.00;;;;;;5075534;28;20060;-67
2022/01/24 08:00:18;;;;;;;28.50;14.33;;;90.10;2176.00;;;;;;5075221;28;20028;-72
2022/01/24 08:02:44;;;;;;;30.10;14.03;;;90.00;2176.00;;;;;;5075124;28;20017;-67
2022/01/24 08:05:11;;;;;;;26.67;14.30;;;90.00;2176.00;;;;;;5075401;28;20526;-67
2022/01/24 08:07:38;;;;;;;23.03;13.43;;;;;;;;;;5073790;28;20034;-68
2022/01/24 08:10:05;;;;;;;36.53;15.23;;;89.80;2176.00;;;;;;5075311;28;20109;-67
2022/01/24 08:12:31;;;;;;;26.90;13.53;;;89.80;2176.00;;;;;;5075045;28;20017;-67
2022/01/24 08:15:00;;;;;;;25.63;14.27;;;89.70;2176.00;;;;;;5074700;28;20392;-67
2022/01/24 08:17:26;;;;;;;26.73;13.87;;;89.70;2176.00;;;;;;5074744;28;20496;-67
2022/01/24 08:19:52;;;;;;;23.30;11.83;;;89.60;2201.60;;;;;;5075145;28;20102;-67
2022/01/24 08:22:18;;;;;;;27.60;13.33;;;64.90;2201.60;;;;;;5074816;28;20032;-67
2022/01/24 08:24:47;;;;;;;31.17;14.20;;;64.80;2201.60;;;;;;5074839;28;20385;-67
2022/01/24 08:27:15;;;;;;;36.83;17.70;;;64.80;2201.60;;;;;;5074593;28;20021;-67
2022/01/24 08:29:43;;;;;;;30.33;14.73;;;64.70;2201.60;;;;;;5074634;28;20025;-67
2022/01/24 08:32:10;;;;;;;43.43;21.57;;;64.70;2201.60;;;;;;5074807;28;20056;-67
2022/01/24 08:34:36;;;;;;;40.20;19.27;;;64.60;2201.60;;;;;;5074697;28;20024;-67
2022/01/24 08:37:01;;;;;;;63.47;29.67;;;64.50;2201.60;;;;;;5074298;28;20027;-68
2022/01/24 08:39:27;;;;;;;64.33;32.33;;;64.40;2201.60;;;;;;5074390;28;20035;-67
2022/01/24 08:47:06;;;;;;;41.30;20.20;;;64.10;2201.60;;;;;;5051496;28;20036;-75
2022/01/24 08:49:32;;;;;;;52.20;22.80;;;64.10;2201.60;;;;;;5073732;28;20481;-74
2022/01/24 08:52:00;;;;;;;256.10;104.83;;;64.00;2201.60;;;;;;5072544;28;20123;-76
2022/01/24 08:54:26;;;;;;;79.67;36.17;;;39.30;2201.60;;;;;;5076521;28;20046;-69
2022/01/24 08:56:53;;;;;;;37.43;17.60;;;39.10;2201.60;;;;;;5082895;28;20032;-68
2022/01/24 08:59:19;;;;;;;50.43;20.37;;;39.00;2201.60;;;;;;5083450;28;20034;-68
2022/01/24 09:01:47;;;;;;;48.23;22.77;;;38.70;2201.60;;;;;;5081576;28;20465;-72
2022/01/24 09:04:13;;;;;;;147.73;59.37;;;38.50;2176.00;;;;;;5082806;28;20016;-77
2022/01/24 09:06:38;;;;;;;389.60;135.67;;;13.60;2150.40;;;;;;5083113;28;20070;-76
2022/01/24 09:09:05;;;;;;;151.00;60.87;;;13.50;2099.20;;;;;;5079966;28;20028;-72
2022/01/24 09:11:36;;;;;;;76.17;37.30;;;13.40;2099.20;;;;;;5078011;28;20090;-74
2022/01/24 09:14:04;;;;;;;115.73;51.70;;;13.30;2099.20;;;;;;5080628;28;20047;-68
2022/01/24 09:16:30;;;;;;;70.30;32.70;;;13.00;2048.00;;;;;;5078211;28;20454;-76
2022/01/24 09:18:56;;;;;;;91.33;44.07;;;12.90;2022.40;;;;;;5081225;28;20419;-75
2022/01/24 09:21:23;;;;;;;76.43;35.83;;;0.00;2022.40;;;;;;5083302;28;20020;-73
2022/01/24 09:23:49;;;;;;;62.47;29.80;;;0.40;1971.20;;;;;;5079136;28;20024;-75
2022/01/24 09:26:18;;;;;;;82.00;33.43;;;25.90;1868.80;;;;;;5081067;28;20024;-76
2022/01/24 09:28:44;;;;;;;135.53;56.10;;;51.70;1792.00;;;;;;5080642;28;20028;-75
2022/01/24 09:31:10;;;;;;;180.27;69.23;;;77.10;1689.60;;;;;;5074552;28;20082;-70
2022/01/24 09:33:36;;;;;;;239.97;94.67;;;77.50;1612.80;;;;;;5071701;28;20020;-70
2022/01/24 09:36:03;;;;;;;132.57;56.67;;;102.90;1561.60;;;;;;5074504;28;20476;-75
2022/01/24 09:38:32;;;;;;;78.27;36.80;;;128.70;1433.60;;;;;;5078650;28;20031;-67
2022/01/24 09:41:00;;;;;;;116.97;53.27;;;153.80;1382.40;;;;;;5082569;28;20092;-67
2022/01/24 09:43:26;;;;;;;79.73;38.43;;;179.70;1305.60;;;;;;5080957;28;20381;-67
2022/01/24 09:45:52;;;;;;;44.23;25.00;;;256.10;1100.80;;;;;;5082447;28;20016;-76
2022/01/24 09:48:18;;;;;;;81.83;39.20;;;282.10;1024.00;;;;;;5082511;28;20028;-73
2022/01/24 09:50:45;;;;;;;50.13;25.10;;;256.60;1024.00;;;;;;5081003;28;20099;-75
2022/01/24 09:53:13;;;;;;;62.40;31.17;;;282.30;998.40;;;;;;5080951;28;20021;-74
2022/01/24 09:55:39;;;;;;;65.93;31.83;;;307.50;972.80;;;;;;5081301;28;20030;-68
2022/01/24 09:58:05;;;;;;;42.70;23.40;;;332.80;972.80;;;;;;5083065;28;20032;-67
2022/01/24 10:00:32;;;;;;;52.13;29.73;;;358.40;921.60;;;;;;5081246;28;20025;-68
2022/01/24 10:02:58;;;;;;;43.67;22.55;;;409.60;844.80;;;;;;5081491;28;20090;-74
2022/01/24 10:05:37;;;;;;;65.35;32.83;;;435.30;768.00;;;;;;5081553;28;20028;-69
2022/01/24 10:08:24;;;;;;;43.28;22.98;;;410.30;793.60;;;;;;5082812;28;20024;-77
2022/01/24 10:10:53;;;;;;;47.70;25.85;;;358.60;844.80;;;;;;5078632;28;20480;-77
2022/01/24 10:16:37;;;;;;;261.77;134.60;;;435.40;768.00;;;;;;5080878;28;20491;-68
2022/01/24 10:19:21;;;;;;;63.75;40.75;;;512.00;691.20;;;;;;5084168;28;20067;-68
2022/01/24 10:22:12;;;;;;;32.40;21.15;;;538.50;640.00;;;;;;5075093;28;20475;-74
2022/01/24 10:24:49;;;;;;;30.33;18.35;;;564.10;614.40;;;;;;5076512;28;20020;-68
2022/01/24 10:27:32;;;;;;;30.85;21.73;;;563.70;614.40;;;;;;5076501;28;20016;-67
2022/01/24 10:30:10;;;;;;;;;;;538.20;614.40;;;;;;5073098;28;20052;-68
2022/01/24 10:32:39;;;;;;;25.65;17.17;;;;;;;;;;5077612;28;20314;-74
2022/01/24 10:35:25;;;;;;;29.50;18.38;;;487.10;665.60;;;;;;5076847;28;20362;-73
2022/01/24 10:38:13;;;;;;;34.28;18.90;;;487.10;665.60;;;;;;5076705;28;20063;-74
2022/01/24 10:43:25;;;;;;;24.83;16.75;;;435.90;691.20;;;;;;5086665;28;20033;-67
2022/01/24 10:45:53;;;;;;;43.22;19.52;;;384.00;742.40;;;;;;5093169;28;20093;-75
2022/01/24 10:48:27;;;;;;;26.02;15.50;;;384.00;768.00;;;;;;5086175;28;20025;-75
2022/01/24 10:51:11;;;;;;;39.13;21.42;;;358.80;793.60;;;;;;5087358;28;20050;-71
2022/01/24 10:53:43;;;;;;;38.35;23.38;;;384.40;742.40;;;;;;5086713;28;20077;-69
2022/01/24 10:56:30;;;;;;;35.97;22.20;;;435.70;691.20;;;;;;5075589;28;20027;-78
2022/01/24 10:58:58;;;;;;;29.42;18.52;;;;;;;;;;5086265;28;20039;-70
2022/01/24 11:01:27;;;;;;;32.17;19.48;;;409.70;716.80;;;;;;5078464;28;20095;-70
2022/01/24 11:04:02;;;;;;;48.75;20.42;;;461.50;691.20;;;;;;5091684;28;20401;-68
2022/01/24 11:06:29;;;;;;;45.90;27.92;;;461.50;665.60;;;;;;5087029;28;20028;-75
2022/01/24 11:09:24;;;;;;;28.23;18.20;;;460.80;691.20;;;;;;5093362;28;20028;-68
2022/01/24 11:12:12;;;;;;;44.85;29.02;;;486.90;640.00;;;;;;5073091;28;20074;-70
2022/01/24 11:14:42;;;;;;;41.22;19.50;;;436.00;665.60;;;;;;5076732;28;20048;-77
2022/01/24 11:17:12;;;;;;;53.72;26.30;;;359.10;768.00;;;;;;5075230;28;20028;-72
2022/01/24 11:22:07;;;;;;;30.33;14.63;;;307.20;844.80;;;;;;5080502;28;20020;-73
2022/01/24 11:24:40;;;;;;;31.95;17.08;;;256.90;844.80;;;;;;5083841;28;20024;-74
2022/01/24 11:27:07;;;;;;;31.30;19.20;;;256.10;896.00;;;;;;5083613;28;20100;-70
2022/01/24 11:29:35;;;;;;;30.10;17.08;;;231.10;921.60;;;;;;5082633;28;20032;-71
2022/01/24 11:32:24;;;;;;;31.95;16.30;;;230.90;972.80;;;;;;5082368;28;20028;-69
2022/01/24 11:34:51;;;;;;;33.92;17.98;;;;;;;;;;5081315;28;20362;-69
2022/01/24 11:37:36;;;;;;;36.38;19.20;;;205.40;998.40;;;;;;5075185;28;20086;-70
2022/01/24 11:40:07;;;;;;;44.03;18.42;;;204.80;1100.80;;;;;;5078744;28;20475;-72
2022/01/24 11:42:35;;;;;;;29.85;18.83;;;179.80;1177.60;;;;;;5074608;28;20052;-68
2022/01/24 11:45:10;;;;;;;36.55;19.67;;;179.50;1177.60;;;;;;5072066;28;20059;-66
2022/01/24 11:47:35;;;;;;;33.60;20.13;;;179.20;1203.20;;;;;;5074189;28;20086;-75
2022/01/24 11:50:24;;;;;;;35.50;19.73;;;154.30;1254.40;;;;;;5074119;28;20024;-65
2022/01/24 11:52:51;;;;;;;32.95;18.90;;;153.90;1280.00;;;;;;5075116;28;20464;-74
2022/01/24 11:55:30;;;;;;;36.28;18.20;;;153.90;1280.00;;;;;;5073710;28;20074;-72
2022/01/24 11:58:04;;;;;;;23.83;14.55;;;153.90;1254.40;;;;;;5074970;28;20485;-69
2022/01/24 12:00:37;;;;;;;30.15;15.98;;;153.70;1203.20;;;;;;5074657;28;20103;-75
2022/01/24 12:03:23;;;;;;;31.17;16.33;;;153.80;1254.40;;;;;;5074912;28;20060;-70
2022/01/24 12:05:53;;;;;;;31.63;17.95;;;153.80;1254.40;;;;;;5073654;28;20376;-69
2022/01/24 12:08:31;;;;;;;34.97;18.17;;;153.80;1254.40;;;;;;5074825;28;20112;-75
2022/01/24 12:11:30;;;;;;;37.33;19.02;;;154.20;1254.40;;;;;;5074483;28;20062;-70
2022/01/24 12:14:11;;;;;;;41.03;17.73;;;205.50;1075.20;;;;;;5074573;28;20072;-70
2022/01/24 12:16:41;;;;;;;32.78;17.23;;;230.70;1075.20;;;;;;5074602;28;20021;-69
2022/01/24 12:19:08;;;;;;;27.85;15.15;;;230.70;998.40;;;;;;5074656;28;20035;-70
2022/01/24 12:21:37;;;;;;;31.27;12.55;;;230.90;947.20;;;;;;5074548;28;20017;-70
2022/01/24 12:24:11;;;;;;;44.70;21.52;;;256.10;921.60;;;;;;5074396;28;20466;-70
2022/01/24 12:26:47;;;;;;;27.98;15.88;;;333.60;793.60;;;;;;5074223;28;20021;-69
2022/01/24 12:29:26;;;;;;;59.30;20.95;;;384.90;716.80;;;;;;5073921;28;20210;-74
2022/01/24 12:32:01;;;;;;;34.42;16.98;;;333.20;793.60;;;;;;5074393;28;20020;-70
2022/01/24 12:34:38;;;;;;;29.70;17.73;;;281.90;870.40;;;;;;5074219;28;20480;-75
2022/01/24 12:37:08;;;;;;;31.73;17.45;;;256.70;896.00;;;;;;5073858;28;20040;-69
2022/01/24 12:39:52;;;;;;;30.17;16.42;;;;;;;;;;5036498;28;20116;-68
2022/01/24 12:42:39;;;;;;;90.75;35.33;;;359.10;768.00;;;;;;5069466;28;20035;-74
2022/01/24 12:48:07;;;;;;;76.47;36.25;;;332.90;844.80;;;;;;5071353;28;20149;-75
2022/01/24 12:50:33;;;;;;;85.95;33.55;;;358.80;793.60;;;;;;5073115;28;20035;-75
2022/01/24 12:52:59;;;;;;;45.75;24.95;;;384.80;742.40;;;;;;5070741;28;20100;-75
2022/01/24 12:55:25;;;;;;;53.80;26.52;;;563.50;588.80;;;;;;5073476;28;20425;-68
2022/01/24 12:57:51;;;;;;;47.65;24.45;;;640.90;512.00;;;;;;5073219;28;20392;-69
2022/01/24 13:00:18;;;;;;;29.15;18.15;;;717.30;435.20;;;;;;5072237;28;20025;-69
2022/01/24 13:02:44;;;;;;;28.98;17.42;;;743.20;435.20;;;;;;5072882;28;20028;-70
2022/01/24 13:05:12;;;;;;;45.42;23.00;;;;;;;;;;5070959;28;20025;-68
2022/01/24 13:07:40;;;;;;;46.88;24.63;;;691.40;384.00;;;;;;5073517;28;20028;-68
2022/01/24 13:10:11;;;;;;;53.60;29.48;;;640.10;435.20;;;;;;5073415;28;20032;-69
2022/01/24 13:12:38;;;;;;;44.20;26.95;;;563.80;512.00;;;;;;5072305;28;20020;-72
2022/01/24 13:15:08;;;;;;;36.05;20.45;;;589.30;486.40;;;;;;5073259;28;20048;-72
2022/01/24 13:20:52;;;;;;;24.33;15.52;;;563.50;537.60;;;;;;5073662;28;20101;-68
2022/01/24 13:23:21;;;;;;;45.03;20.63;;;563.70;512.00;;;;;;5073225;28;20044;-69
2022/01/24 13:25:49;;;;;;;33.67;18.75;;;538.50;512.00;;;;;;5073639;28;20032;-68
2022/01/24 13:28:18;;;;;;;30.25;18.38;;;589.70;512.00;;;;;;5073050;28;20051;-69
2022/01/24 13:30:51;;;;;;;63.55;28.15;;;665.70;486.40;;;;;;5072454;28;20025;-69
2022/01/24 13:33:23;;;;;;;61.20;26.38;;;743.00;409.60;;;;;;5072815;28;20016;-69
2022/01/24 13:35:55;;;;;;;35.13;20.73;;;794.10;435.20;;;;;;5072869;28;20020;-69
2022/01/24 13:38:30;;;;;;;20.90;14.27;;;819.90;358.40;;;;;;5068334;28;20044;-71
2022/01/24 13:41:07;;;;;;;44.72;24.92;;;844.90;384.00;;;;;;5072301;28;20012;-75
2022/01/24 13:43:41;;;;;;;33.45;19.30;;;845.50;358.40;;;;;;5072562;28;20484;-69
2022/01/24 13:46:16;;;;;;;24.77;16.75;;;870.50;358.40;;;;;;5072948;28;20024;-69
2022/01/24 13:48:49;;;;;;;26.75;14.63;;;870.90;332.80;;;;;;5072910;28;20025;-73
2022/01/24 13:51:17;;;;;;;33.00;15.27;;;;;;;;;;5071881;28;20058;-73
2022/01/24 13:53:53;;;;;;;30.75;19.08;;;871.30;358.40;;;;;;5071165;28;20028;-68
2022/01/24 13:56:19;;;;;;;39.42;23.83;;;896.10;307.20;;;;;;5072050;28;20376;-67
2022/01/24 13:59:08;;;;;;;43.47;27.33;;;871.20;307.20;;;;;;5072767;28;20108;-74
2022/01/24 14:01:36;;;;;;;66.57;42.15;;;870.90;307.20;;;;;;5073108;28;20090;-79
2022/01/24 14:04:08;;;;;;;60.70;38.88;;;871.20;307.20;;;;;;5068497;28;20021;-67
2022/01/24 14:06:38;;;;;;;68.55;39.33;;;870.70;358.40;;;;;;5071152;28;20048;-71
2022/01/24 14:09:12;;;;;;;74.07;43.03;;;870.50;332.80;;;;;;5072201;28;20451;-76
2022/01/24 14:11:47;;;;;;;81.68;45.45;;;845.70;307.20;;;;;;5072297;28;20439;-72